createdAt,value
2018-05-15T00:00:42.379Z,15.94
2018-05-15T00:01:47.130Z,15.90
2018-05-15T00:02:51.901Z,15.90
2018-05-15T00:03:56.941Z,15.85
2018-05-15T00:05:02.088Z,15.86
2018-05-15T00:06:06.571Z,15.78
2018-05-15T00:07:11.004Z,15.71
2018-05-15T00:08:16.145Z,15.73
2018-05-15T00:09:20.549Z,15.76
2018-05-15T00:10:25.544Z,15.73
2018-05-15T00:11:30.279Z,15.44
2018-05-15T00:12:35.554Z,15.27
2018-05-15T00:13:40.014Z,15.34
2018-05-15T00:14:45.419Z,15.28
2018-05-15T00:15:50.441Z,15.30
2018-05-15T00:16:55.543Z,15.15
2018-05-15T00:18:01.128Z,15.12
2018-05-15T00:19:05.608Z,15.07
2018-05-15T00:20:10.042Z,15.15
2018-05-15T00:21:14.770Z,15.06
2018-05-15T00:22:19.352Z,15.10
2018-05-15T00:23:23.808Z,15.19
2018-05-15T00:24:28.232Z,15.33
2018-05-15T00:25:32.811Z,15.34
2018-05-15T00:26:38.720Z,15.10
2018-05-15T00:27:44.110Z,14.97
2018-05-15T00:28:49.333Z,14.77
2018-05-15T00:29:53.856Z,14.76
2018-05-15T00:30:58.344Z,14.79
2018-05-15T00:32:03.133Z,14.73
2018-05-15T00:33:08.745Z,14.71
2018-05-15T00:34:13.962Z,14.88
2018-05-15T00:35:18.462Z,14.90
2018-05-15T00:36:23.396Z,14.94
2018-05-15T00:37:28.426Z,14.91
2018-05-15T00:38:34.512Z,15.02
2018-05-15T00:39:39.710Z,15.00
2018-05-15T00:40:44.561Z,14.99
2018-05-15T00:41:49.055Z,15.08
2018-05-15T00:42:53.481Z,15.05
2018-05-15T00:43:57.916Z,14.84
2018-05-15T00:45:02.348Z,14.74
2018-05-15T00:46:06.884Z,14.71
2018-05-15T00:47:12.268Z,14.65
2018-05-15T00:48:18.107Z,14.65
2018-05-15T00:49:22.557Z,14.74
2018-05-15T00:50:26.980Z,14.75
2018-05-15T00:51:31.420Z,14.65
2018-05-15T00:52:36.772Z,14.68
2018-05-15T00:53:41.928Z,14.69
2018-05-15T00:54:47.388Z,14.66
2018-05-15T00:55:51.968Z,14.67
2018-05-15T00:56:58.260Z,14.50
2018-05-15T00:58:02.695Z,14.62
2018-05-15T00:59:07.147Z,14.67
2018-05-15T01:00:11.997Z,14.67
2018-05-15T01:01:16.427Z,14.74
2018-05-15T01:02:20.859Z,14.76
2018-05-15T01:03:25.275Z,14.75
2018-05-15T01:04:29.746Z,14.70
2018-05-15T01:05:34.698Z,14.39
2018-05-15T01:06:39.672Z,14.44
2018-05-15T01:07:44.172Z,14.46
2018-05-15T01:08:48.644Z,14.41
2018-05-15T01:09:53.088Z,14.37
2018-05-15T01:10:57.605Z,14.37
2018-05-15T01:12:03.266Z,14.41
2018-05-15T01:13:09.124Z,14.36
2018-05-15T01:14:13.568Z,14.48
2018-05-15T01:15:18.185Z,14.46
2018-05-15T01:16:22.963Z,14.55
2018-05-15T01:17:28.369Z,14.58
2018-05-15T01:18:34.537Z,14.56
2018-05-15T01:19:39.840Z,14.52
2018-05-15T01:20:45.381Z,14.56
2018-05-15T01:21:50.886Z,14.45
2018-05-15T01:22:55.780Z,14.49
2018-05-15T01:24:00.258Z,14.35
2018-05-15T01:25:05.672Z,14.28
2018-05-15T01:26:10.545Z,14.21
2018-05-15T01:27:15.028Z,14.14
2018-05-15T01:28:19.885Z,14.21
2018-05-15T01:29:24.499Z,14.29
2018-05-15T01:30:29.035Z,14.32
2018-05-15T01:31:33.516Z,14.25
2018-05-15T01:32:38.981Z,14.30
2018-05-15T01:33:43.497Z,14.27
2018-05-15T01:34:48.009Z,14.37
2018-05-15T01:35:52.500Z,14.46
2018-05-15T01:36:56.997Z,14.57
2018-05-15T01:38:01.461Z,14.50
2018-05-15T01:39:06.231Z,14.41
2018-05-15T01:40:10.837Z,14.31
2018-05-15T01:41:15.375Z,14.29
2018-05-15T01:42:19.941Z,14.29
2018-05-15T01:43:24.553Z,14.20
2018-05-15T01:44:29.212Z,14.27
2018-05-15T01:45:34.071Z,14.20
2018-05-15T01:46:38.627Z,14.09
2018-05-15T01:47:43.515Z,14.08
2018-05-15T01:48:48.042Z,13.97
2018-05-15T01:49:52.590Z,13.99
2018-05-15T01:50:57.176Z,14.03
2018-05-15T01:52:02.079Z,14.10
2018-05-15T01:53:06.669Z,14.12
2018-05-15T01:54:11.208Z,14.12
2018-05-15T01:55:15.720Z,14.22
2018-05-15T01:56:20.274Z,14.07
2018-05-15T01:57:24.842Z,13.97
2018-05-15T01:58:29.749Z,13.61
2018-05-15T01:59:34.349Z,13.36
2018-05-15T02:00:39.138Z,13.42
2018-05-15T02:01:43.691Z,13.58
2018-05-15T02:02:48.227Z,13.68
2018-05-15T02:03:52.923Z,13.73
2018-05-15T02:04:57.843Z,13.72
2018-05-15T02:06:02.408Z,13.76
2018-05-15T02:07:06.945Z,13.75
2018-05-15T02:08:11.483Z,13.81
2018-05-15T02:09:16.022Z,13.90
2018-05-15T02:10:20.557Z,13.92
2018-05-15T02:11:25.549Z,14.02
2018-05-15T02:12:30.076Z,14.07
2018-05-15T02:13:34.640Z,13.90
2018-05-15T02:14:40.035Z,13.59
2018-05-15T02:15:44.621Z,13.41
2018-05-15T02:16:49.157Z,13.35
2018-05-15T02:17:54.026Z,13.55
2018-05-15T02:18:58.607Z,13.57
2018-05-15T02:20:03.438Z,13.41
2018-05-15T02:21:08.062Z,13.10
2018-05-15T02:22:12.615Z,13.06
2018-05-15T02:23:17.196Z,13.02
2018-05-15T02:24:22.248Z,13.00
2018-05-15T02:25:26.849Z,13.02
2018-05-15T02:26:31.429Z,13.12
2018-05-15T02:27:36.066Z,13.20
2018-05-15T02:28:40.643Z,13.27
2018-05-15T02:29:45.103Z,13.29
2018-05-15T02:30:49.887Z,13.37
2018-05-15T02:31:54.489Z,13.33
2018-05-15T02:32:58.947Z,13.14
2018-05-15T02:34:03.414Z,12.85
2018-05-15T02:35:07.851Z,12.85
2018-05-15T02:36:12.299Z,12.91
2018-05-15T02:37:17.061Z,13.05
2018-05-15T02:38:21.590Z,13.15
2018-05-15T02:39:26.097Z,13.16
2018-05-15T02:40:30.557Z,13.13
2018-05-15T02:41:35.038Z,13.00
2018-05-15T02:42:39.561Z,12.93
2018-05-15T02:43:44.310Z,12.89
2018-05-15T02:44:48.858Z,12.61
2018-05-15T02:45:53.326Z,12.53
2018-05-15T02:46:57.784Z,12.52
2018-05-15T02:48:02.240Z,12.59
2018-05-15T02:49:06.709Z,12.68
2018-05-15T02:50:11.535Z,12.63
2018-05-15T02:51:16.036Z,12.55
2018-05-15T02:52:20.495Z,12.52
2018-05-15T02:53:25.017Z,12.57
2018-05-15T02:54:29.465Z,12.60
2018-05-15T02:55:33.949Z,12.54
2018-05-15T02:56:38.706Z,12.47
2018-05-15T02:57:43.267Z,12.55
2018-05-15T02:58:47.746Z,12.55
2018-05-15T02:59:52.345Z,12.64
2018-05-15T03:00:56.910Z,12.68
2018-05-15T03:02:01.516Z,12.85
2018-05-15T03:03:06.403Z,12.79
2018-05-15T03:04:11.006Z,12.70
2018-05-15T03:05:15.640Z,12.57
2018-05-15T03:06:20.226Z,12.38
2018-05-15T03:07:24.818Z,12.55
2018-05-15T03:08:29.396Z,12.54
2018-05-15T03:09:34.297Z,12.57
2018-05-15T03:10:38.913Z,12.63
2018-05-15T03:11:43.463Z,12.64
2018-05-15T03:12:47.863Z,12.65
2018-05-15T03:13:52.606Z,12.68
2018-05-15T03:14:57.048Z,12.75
2018-05-15T03:16:01.900Z,12.80
2018-05-15T03:17:06.375Z,12.85
2018-05-15T03:18:10.840Z,12.87
2018-05-15T03:19:15.310Z,13.04
2018-05-15T03:20:19.804Z,13.11
2018-05-15T03:21:24.309Z,13.26
2018-05-15T03:22:29.164Z,13.33
2018-05-15T03:23:33.666Z,13.35
2018-05-15T03:24:38.160Z,13.38
2018-05-15T03:25:42.638Z,13.38
2018-05-15T03:26:47.139Z,13.28
2018-05-15T03:27:51.613Z,13.28
2018-05-15T03:28:56.471Z,13.34
2018-05-15T03:30:00.941Z,13.45
2018-05-15T03:31:05.408Z,13.44
2018-05-15T03:32:10.161Z,13.40
2018-05-15T03:33:14.628Z,13.41
2018-05-15T03:34:19.125Z,13.45
2018-05-15T03:35:23.939Z,13.44
2018-05-15T03:36:28.414Z,13.51
2018-05-15T03:37:32.891Z,13.53
2018-05-15T03:38:37.393Z,13.60
2018-05-15T03:39:41.859Z,13.31
2018-05-15T03:40:46.343Z,12.82
2018-05-15T03:41:51.207Z,12.28
2018-05-15T03:42:55.763Z,11.99
2018-05-15T03:44:00.326Z,11.93
2018-05-15T03:45:04.868Z,11.69
2018-05-15T03:46:09.406Z,11.41
2018-05-15T03:47:13.952Z,11.46
2018-05-15T03:48:18.974Z,11.64
2018-05-15T03:49:23.518Z,11.72
2018-05-15T03:50:28.467Z,11.89
2018-05-15T03:51:33.033Z,11.93
2018-05-15T03:52:37.556Z,11.97
2018-05-15T03:53:42.932Z,12.08
2018-05-15T03:54:47.858Z,12.11
2018-05-15T03:55:52.405Z,12.22
2018-05-15T03:56:56.893Z,12.38
2018-05-15T03:58:01.376Z,12.49
2018-05-15T03:59:05.864Z,12.64
2018-05-15T04:00:15.559Z,12.68
2018-05-15T04:01:25.410Z,12.39
2018-05-15T04:04:39.198Z,12.24
2018-05-15T04:05:49.145Z,12.48
2018-05-15T04:08:05.885Z,12.63
2018-05-15T04:09:10.341Z,12.89
2018-05-15T04:10:14.813Z,12.94
2018-05-15T04:11:19.800Z,12.93
2018-05-15T04:12:24.561Z,12.95
2018-05-15T04:13:28.995Z,12.90
2018-05-15T04:14:33.555Z,12.87
2018-05-15T04:15:38.034Z,12.89
2018-05-15T04:16:42.506Z,12.99
2018-05-15T04:17:46.974Z,13.00
2018-05-15T04:18:51.724Z,13.11
2018-05-15T04:19:56.205Z,13.17
2018-05-15T04:21:00.690Z,13.18
2018-05-15T04:22:05.151Z,13.13
2018-05-15T04:23:09.633Z,13.15
2018-05-15T04:24:14.167Z,13.17
2018-05-15T04:25:19.013Z,13.28
2018-05-15T04:26:23.610Z,13.34
2018-05-15T04:27:28.193Z,13.33
2018-05-15T04:28:32.754Z,13.41
2018-05-15T04:29:37.329Z,13.45
2018-05-15T04:30:41.901Z,13.46
2018-05-15T04:31:47.673Z,13.49
2018-05-15T04:32:52.298Z,13.52
2018-05-15T04:33:56.861Z,13.50
2018-05-15T04:35:01.440Z,13.40
2018-05-15T04:36:06.042Z,13.50
2018-05-15T04:37:10.637Z,13.44
2018-05-15T04:38:15.628Z,13.46
2018-05-15T04:39:20.208Z,13.56
2018-05-15T04:40:25.090Z,13.54
2018-05-15T04:41:29.628Z,13.51
2018-05-15T04:42:34.141Z,13.51
2018-05-15T04:43:38.711Z,13.63
2018-05-15T04:44:43.570Z,13.59
2018-05-15T04:45:48.135Z,13.55
2018-05-15T04:46:52.718Z,13.58
2018-05-15T04:47:57.367Z,13.68
2018-05-15T04:49:01.850Z,13.71
2018-05-15T04:50:06.352Z,13.64
2018-05-15T04:51:11.196Z,13.68
2018-05-15T04:52:15.690Z,13.75
2018-05-15T04:53:20.167Z,13.86
2018-05-15T04:54:24.632Z,13.92
2018-05-15T04:55:29.129Z,13.93
2018-05-15T04:56:33.618Z,13.97
2018-05-15T04:57:38.597Z,13.99
2018-05-15T04:58:43.049Z,14.02
2018-05-15T04:59:47.533Z,14.06
2018-05-15T05:00:52.175Z,14.08
2018-05-15T05:01:56.830Z,14.19
2018-05-15T05:03:01.404Z,14.28
2018-05-15T05:04:06.278Z,14.26
2018-05-15T05:05:10.847Z,14.26
2018-05-15T05:06:15.381Z,14.32
2018-05-15T05:07:19.983Z,14.37
2018-05-15T05:08:24.518Z,14.43
2018-05-15T05:09:29.093Z,14.53
2018-05-15T05:10:33.971Z,14.58
2018-05-15T05:11:38.419Z,14.59
2018-05-15T05:12:42.947Z,14.63
2018-05-15T05:13:47.433Z,14.61
2018-05-15T05:14:51.970Z,14.71
2018-05-15T05:15:56.464Z,14.74
2018-05-15T05:17:01.220Z,14.84
2018-05-15T05:18:05.699Z,14.93
2018-05-15T05:19:10.162Z,14.96
2018-05-15T05:20:14.614Z,14.92
2018-05-15T05:21:19.106Z,14.90
2018-05-15T05:22:23.597Z,14.92
2018-05-15T05:23:28.364Z,15.01
2018-05-15T05:24:32.890Z,14.96
2018-05-15T05:25:37.353Z,14.97
2018-05-15T05:26:41.830Z,15.08
2018-05-15T05:27:46.396Z,15.30
2018-05-15T05:28:50.873Z,15.59
2018-05-15T05:29:55.696Z,15.65
2018-05-15T05:31:00.259Z,15.71
2018-05-15T05:32:04.769Z,15.58
2018-05-15T05:33:10.420Z,15.59
2018-05-15T05:34:14.883Z,15.66
2018-05-15T05:35:19.360Z,15.63
2018-05-15T05:36:23.884Z,15.75
2018-05-15T05:37:28.343Z,15.86
2018-05-15T05:38:32.943Z,15.82
2018-05-15T05:39:37.417Z,15.61
2018-05-15T05:40:42.003Z,15.80
2018-05-15T05:41:46.884Z,15.89
2018-05-15T05:42:51.470Z,16.03
2018-05-15T05:43:56.019Z,15.99
2018-05-15T05:45:00.646Z,16.01
2018-05-15T05:46:05.169Z,16.15
2018-05-15T05:47:09.712Z,16.12
2018-05-15T05:48:14.754Z,16.83
2018-05-15T05:49:19.425Z,16.79
2018-05-15T05:50:23.972Z,16.61
2018-05-15T05:51:28.727Z,16.42
2018-05-15T05:52:33.294Z,16.44
2018-05-15T05:53:37.879Z,16.69
2018-05-15T05:54:42.793Z,16.48
2018-05-15T05:55:47.414Z,16.38
2018-05-15T05:56:52.001Z,16.47
2018-05-15T05:57:56.621Z,16.54
2018-05-15T05:59:01.189Z,16.64
2018-05-15T06:00:05.857Z,16.67
2018-05-15T06:01:11.457Z,16.38
2018-05-15T06:02:16.101Z,16.59
2018-05-15T06:03:20.727Z,16.49
2018-05-15T06:04:25.331Z,16.51
2018-05-15T06:05:29.894Z,16.48
2018-05-15T06:06:34.533Z,16.56
2018-05-15T06:07:39.631Z,16.67
2018-05-15T06:08:44.613Z,16.62
2018-05-15T06:09:49.351Z,16.68
2018-05-15T06:10:53.919Z,16.76
2018-05-15T06:11:58.537Z,16.77
2018-05-15T06:13:03.254Z,16.88
2018-05-15T06:14:08.303Z,16.86
2018-05-15T06:15:12.847Z,16.80
2018-05-15T06:16:17.555Z,16.86
2018-05-15T06:17:22.217Z,16.76
2018-05-15T06:18:26.817Z,16.79
2018-05-15T06:19:31.463Z,16.77
2018-05-15T06:20:36.141Z,16.90
2018-05-15T06:21:40.800Z,16.91
2018-05-15T06:22:45.512Z,16.92
2018-05-15T06:23:50.185Z,16.92
2018-05-15T06:24:54.790Z,16.99
2018-05-15T06:26:00.014Z,17.05
2018-05-15T06:27:04.598Z,17.08
2018-05-15T06:28:09.347Z,17.34
2018-05-15T06:29:14.586Z,17.73
2018-05-15T06:30:19.738Z,17.74
2018-05-15T06:31:24.441Z,17.75
2018-05-15T06:32:29.391Z,17.51
2018-05-15T06:33:34.032Z,17.53
2018-05-15T06:34:57.739Z,18.06
2018-05-15T06:36:03.249Z,18.40
2018-05-15T06:37:07.856Z,17.75
2018-05-15T06:38:12.484Z,17.79
2018-05-15T06:40:36.503Z,17.80
2018-05-15T06:41:41.131Z,17.87
2018-05-15T06:42:45.738Z,18.17
2018-05-15T06:43:51.722Z,18.49
2018-05-15T06:44:56.331Z,18.56
2018-05-15T06:46:01.851Z,18.52
2018-05-15T06:47:06.566Z,18.19
2018-05-15T06:48:11.564Z,18.22
2018-05-15T06:49:16.267Z,18.23
2018-05-15T06:50:20.973Z,18.05
2018-05-15T06:51:26.793Z,17.80
2018-05-15T06:52:31.814Z,17.80
2018-05-15T06:53:36.459Z,17.92
2018-05-15T06:54:41.909Z,18.09
2018-05-15T06:55:46.503Z,18.35
2018-05-15T06:56:51.215Z,18.63
2018-05-15T06:57:55.829Z,18.90
2018-05-15T06:59:00.968Z,19.17
2018-05-15T07:00:05.594Z,19.13
2018-05-15T07:01:10.275Z,19.19
2018-05-15T07:02:14.977Z,19.41
2018-05-15T07:03:19.564Z,19.17
2018-05-15T07:04:24.183Z,19.18
2018-05-15T07:05:29.273Z,18.76
2018-05-15T07:06:34.003Z,19.07
2018-05-15T07:07:38.690Z,18.36
2018-05-15T07:08:43.453Z,18.28
2018-05-15T07:09:48.025Z,18.64
2018-05-15T07:10:52.602Z,19.31
2018-05-15T07:11:57.678Z,19.64
2018-05-15T07:13:02.276Z,19.19
2018-05-15T07:14:06.979Z,19.22
2018-05-15T07:15:11.609Z,19.58
2018-05-15T07:16:16.276Z,19.20
2018-05-15T07:17:21.584Z,19.16
2018-05-15T07:18:26.548Z,19.00
2018-05-15T07:19:31.215Z,19.19
2018-05-15T07:20:35.786Z,19.42
2018-05-15T07:21:40.491Z,19.35
2018-05-15T07:22:45.207Z,19.22
2018-05-15T07:23:49.822Z,19.15
2018-05-15T07:24:54.818Z,19.25
2018-05-15T07:25:59.420Z,19.17
2018-05-15T07:27:04.046Z,19.47
2018-05-15T07:28:08.648Z,19.44
2018-05-15T07:29:13.319Z,19.71
2018-05-15T07:30:17.835Z,19.93
2018-05-15T07:31:22.719Z,19.49
2018-05-15T07:32:27.330Z,19.71
2018-05-15T07:33:31.876Z,19.33
2018-05-15T07:34:36.448Z,19.55
2018-05-15T07:35:41.005Z,20.09
2018-05-15T07:36:45.610Z,19.79
2018-05-15T07:37:50.601Z,19.91
2018-05-15T07:38:55.157Z,20.19
2018-05-15T07:40:00.913Z,19.71
2018-05-15T07:41:05.521Z,19.41
2018-05-15T07:42:10.011Z,19.58
2018-05-15T07:43:14.536Z,19.18
2018-05-15T07:44:19.500Z,19.23
2018-05-15T07:45:24.025Z,19.33
2018-05-15T07:46:28.559Z,19.22
2018-05-15T07:47:33.130Z,19.19
2018-05-15T07:48:37.722Z,19.23
2018-05-15T07:49:42.384Z,19.15
2018-05-15T07:50:47.397Z,19.28
2018-05-15T07:51:51.987Z,19.47
2018-05-15T07:52:56.524Z,19.40
2018-05-15T07:54:01.139Z,19.44
2018-05-15T07:55:05.762Z,19.48
2018-05-15T07:56:10.675Z,19.47
2018-05-15T07:57:15.881Z,19.65
2018-05-15T07:58:20.491Z,19.57
2018-05-15T07:59:25.253Z,19.61
2018-05-15T08:00:29.778Z,19.67
2018-05-15T08:01:34.304Z,19.85
2018-05-15T08:02:38.865Z,19.82
2018-05-15T08:03:43.758Z,19.71
2018-05-15T08:04:48.251Z,19.96
2018-05-15T08:05:52.742Z,19.63
2018-05-15T08:06:57.334Z,19.82
2018-05-15T08:08:01.870Z,20.00
2018-05-15T08:09:06.662Z,20.05
2018-05-15T08:10:11.695Z,19.97
2018-05-15T08:11:16.246Z,20.22
2018-05-15T08:12:20.757Z,20.52
2018-05-15T08:13:25.385Z,20.46
2018-05-15T08:14:29.962Z,20.59
2018-05-15T08:15:34.676Z,20.82
2018-05-15T08:16:39.623Z,20.73
2018-05-15T08:17:44.249Z,20.57
2018-05-15T08:18:48.774Z,20.18
2018-05-15T08:19:53.569Z,20.35
2018-05-15T08:20:58.105Z,20.32
2018-05-15T08:22:02.760Z,20.28
2018-05-15T08:23:07.692Z,20.29
2018-05-15T08:24:12.212Z,20.23
2018-05-15T08:25:16.757Z,20.20
2018-05-15T08:26:21.410Z,20.25
2018-05-15T08:27:25.950Z,20.29
2018-05-15T08:28:30.448Z,20.44
2018-05-15T08:29:35.420Z,20.62
2018-05-15T08:30:39.935Z,20.78
2018-05-15T08:31:44.502Z,21.09
2018-05-15T08:32:49.022Z,20.97
2018-05-15T08:33:53.555Z,21.02
2018-05-15T08:34:58.242Z,20.80
2018-05-15T08:36:03.267Z,20.91
2018-05-15T08:37:07.793Z,20.37
2018-05-15T08:38:12.340Z,20.37
2018-05-15T08:39:16.916Z,20.43
2018-05-15T08:40:21.428Z,20.52
2018-05-15T08:41:26.229Z,20.63
2018-05-15T08:42:30.904Z,20.89
2018-05-15T08:43:35.501Z,20.82
2018-05-15T08:44:40.080Z,20.87
2018-05-15T08:45:44.592Z,20.74
2018-05-15T08:46:49.201Z,20.64
2018-05-15T08:47:53.746Z,20.65
2018-05-15T08:48:58.305Z,20.92
2018-05-15T08:50:02.882Z,20.93
2018-05-15T08:51:07.538Z,20.93
2018-05-15T08:52:13.165Z,20.94
2018-05-15T08:53:17.781Z,21.03
2018-05-15T08:54:22.842Z,21.32
2018-05-15T08:55:27.331Z,21.46
2018-05-15T08:56:31.942Z,21.44
2018-05-15T08:57:36.530Z,21.36
2018-05-15T08:58:41.030Z,21.05
2018-05-15T08:59:45.543Z,20.83
2018-05-15T09:00:50.520Z,20.68
2018-05-15T09:01:55.253Z,20.68
2018-05-15T09:02:59.806Z,20.71
2018-05-15T09:04:04.390Z,20.79
2018-05-15T09:05:09.049Z,21.02
2018-05-15T09:06:14.119Z,20.95
2018-05-15T09:07:19.092Z,20.83
2018-05-15T09:08:23.636Z,20.72
2018-05-15T09:09:28.198Z,20.76
2018-05-15T09:10:32.748Z,20.86
2018-05-15T09:11:37.383Z,21.02
2018-05-15T09:12:42.113Z,21.31
2018-05-15T09:13:47.311Z,21.25
2018-05-15T09:14:51.982Z,21.51
2018-05-15T09:15:56.771Z,21.26
2018-05-15T09:17:01.591Z,20.93
2018-05-15T09:18:07.469Z,20.87
2018-05-15T09:19:12.090Z,20.99
2018-05-15T09:20:17.077Z,21.05
2018-05-15T09:21:21.669Z,21.47
2018-05-15T09:22:26.233Z,21.77
2018-05-15T09:23:38.916Z,21.51
2018-05-15T09:24:43.455Z,21.39
2018-05-15T09:25:48.113Z,21.19
2018-05-15T09:26:53.110Z,21.23
2018-05-15T09:27:57.632Z,21.19
2018-05-15T09:29:02.174Z,21.44
2018-05-15T09:30:06.685Z,21.29
2018-05-15T09:31:11.400Z,21.36
2018-05-15T09:32:15.944Z,21.42
2018-05-15T09:33:20.890Z,21.37
2018-05-15T09:34:25.530Z,21.26
2018-05-15T09:35:30.084Z,21.15
2018-05-15T09:36:34.614Z,21.21
2018-05-15T09:37:39.219Z,21.38
2018-05-15T09:38:43.758Z,21.71
2018-05-15T09:39:48.736Z,21.64
2018-05-15T09:40:53.439Z,21.52
2018-05-15T09:41:57.934Z,21.33
2018-05-15T09:43:02.427Z,21.34
2018-05-15T09:44:07.244Z,21.26
2018-05-15T09:45:11.738Z,21.11
2018-05-15T09:46:17.028Z,20.87
2018-05-15T09:47:21.732Z,21.04
2018-05-15T09:48:26.364Z,21.14
2018-05-15T09:49:30.939Z,21.30
2018-05-15T09:50:35.759Z,21.39
2018-05-15T09:51:40.264Z,21.18
2018-05-15T09:52:45.339Z,20.67
2018-05-15T09:53:49.966Z,20.96
2018-05-15T09:54:54.460Z,21.47
2018-05-15T09:55:59.064Z,21.74
2018-05-15T09:57:03.571Z,21.71
2018-05-15T09:58:08.168Z,21.56
2018-05-15T09:59:13.098Z,21.75
2018-05-15T10:00:22.575Z,21.90
2018-05-15T10:01:27.062Z,22.01
2018-05-15T10:02:31.611Z,21.95
2018-05-15T10:03:36.212Z,22.16
2018-05-15T10:04:41.102Z,22.30
2018-05-15T10:05:46.081Z,21.65
2018-05-15T10:06:50.617Z,21.41
2018-05-15T10:07:55.221Z,21.47
2018-05-15T10:08:59.748Z,21.48
2018-05-15T10:10:04.538Z,21.49
2018-05-15T10:11:11.042Z,21.58
2018-05-15T10:12:16.046Z,21.62
2018-05-15T10:13:20.590Z,21.85
2018-05-15T10:14:25.153Z,21.88
2018-05-15T10:15:29.693Z,22.07
2018-05-15T10:16:36.006Z,22.28
2018-05-15T10:17:40.639Z,22.28
2018-05-15T10:18:45.552Z,22.41
2018-05-15T10:19:50.077Z,22.10
2018-05-15T10:20:54.611Z,21.71
2018-05-15T10:21:59.121Z,21.92
2018-05-15T10:23:03.637Z,22.11
2018-05-15T10:24:08.158Z,22.06
2018-05-15T10:25:13.060Z,22.37
2018-05-15T10:26:17.676Z,22.41
2018-05-15T10:27:22.364Z,21.90
2018-05-15T10:28:26.863Z,21.86
2018-05-15T10:29:31.480Z,21.75
2018-05-15T10:30:36.002Z,21.92
2018-05-15T10:31:40.947Z,21.82
2018-05-15T10:32:45.506Z,21.61
2018-05-15T10:33:50.117Z,22.06
2018-05-15T10:34:54.603Z,22.11
2018-05-15T10:35:59.111Z,22.12
2018-05-15T10:37:03.663Z,22.53
2018-05-15T10:38:08.592Z,22.50
2018-05-15T10:39:13.068Z,21.96
2018-05-15T10:40:17.561Z,21.80
2018-05-15T10:41:22.068Z,21.91
2018-05-15T10:42:26.607Z,21.23
2018-05-15T10:43:31.108Z,21.01
2018-05-15T10:44:37.717Z,20.83
2018-05-15T10:45:42.937Z,21.56
2018-05-15T10:46:48.163Z,22.33
2018-05-15T10:47:54.522Z,22.32
2018-05-15T10:48:59.879Z,22.68
2018-05-15T10:50:05.771Z,22.64
2018-05-15T10:51:11.190Z,22.32
2018-05-15T10:52:15.762Z,22.31
2018-05-15T10:53:21.909Z,22.11
2018-05-15T10:54:28.819Z,21.96
2018-05-15T10:55:34.580Z,22.09
2018-05-15T10:56:40.470Z,22.13
2018-05-15T10:57:45.612Z,22.31
2018-05-15T10:58:50.415Z,22.27
2018-05-15T10:59:55.534Z,22.52
2018-05-15T11:01:04.599Z,22.33
2018-05-15T11:02:14.212Z,21.85
2018-05-15T11:03:21.610Z,21.93
2018-05-15T11:04:26.694Z,21.76
2018-05-15T11:05:32.782Z,21.43
2018-05-15T11:06:37.461Z,21.44
2018-05-15T11:07:42.017Z,21.50
2018-05-15T11:08:47.149Z,21.79
2018-05-15T11:09:52.069Z,21.82
2018-05-15T11:10:56.589Z,21.94
2018-05-15T11:12:01.231Z,21.88
2018-05-15T11:13:05.742Z,21.94
2018-05-15T11:14:10.221Z,22.09
2018-05-15T11:15:14.779Z,21.77
2018-05-15T11:16:19.713Z,21.87
2018-05-15T11:17:24.282Z,22.19
2018-05-15T11:18:31.685Z,22.35
2018-05-15T11:19:41.443Z,22.60
2018-05-15T11:22:56.174Z,22.69
2018-05-15T11:24:05.932Z,22.46
2018-05-15T11:25:10.945Z,22.50
2018-05-15T11:26:15.516Z,22.59
2018-05-15T11:27:20.159Z,22.35
2018-05-15T11:28:25.208Z,22.53
2018-05-15T11:29:29.900Z,22.61
2018-05-15T11:30:34.642Z,22.67
2018-05-15T11:31:39.137Z,22.40
2018-05-15T11:32:43.701Z,22.15
2018-05-15T11:33:48.189Z,22.19
2018-05-15T11:34:53.079Z,22.12
2018-05-15T11:35:57.623Z,22.21
2018-05-15T11:37:02.324Z,22.01
2018-05-15T11:38:06.859Z,22.14
2018-05-15T11:39:11.410Z,22.21
2018-05-15T11:40:16.131Z,22.30
2018-05-15T11:41:20.970Z,22.42
2018-05-15T11:42:25.526Z,22.52
2018-05-15T11:43:30.041Z,22.33
2018-05-15T11:44:34.549Z,21.95
2018-05-15T11:45:39.109Z,22.15
2018-05-15T11:46:43.642Z,22.12
2018-05-15T11:47:48.946Z,22.09
2018-05-15T11:48:54.029Z,22.49
2018-05-15T11:49:58.788Z,22.40
2018-05-15T11:51:03.681Z,22.25
2018-05-15T11:52:08.585Z,22.29
2018-05-15T11:53:13.255Z,22.40
2018-05-15T11:54:17.286Z,22.41
2018-05-15T11:55:23.237Z,22.73
2018-05-15T11:56:27.759Z,22.91
2018-05-15T11:57:32.684Z,23.18
2018-05-15T11:58:37.435Z,23.36
2018-05-15T11:59:42.592Z,23.44
2018-05-15T12:00:47.169Z,23.38
2018-05-15T12:01:51.735Z,23.51
2018-05-15T12:02:56.294Z,23.54
2018-05-15T12:04:00.901Z,23.64
2018-05-15T12:05:05.481Z,23.72
2018-05-15T12:06:10.586Z,23.66
2018-05-15T12:07:15.480Z,23.66
2018-05-15T12:08:20.137Z,23.74
2018-05-15T12:09:24.868Z,23.34
2018-05-15T12:10:29.451Z,23.43
2018-05-15T12:11:34.071Z,23.48
2018-05-15T12:12:38.896Z,23.74
2018-05-15T12:13:43.389Z,23.93
2018-05-15T12:14:47.940Z,24.02
2018-05-15T12:15:52.967Z,24.09
2018-05-15T12:16:57.494Z,24.19
2018-05-15T12:18:02.013Z,24.22
2018-05-15T12:19:07.023Z,24.27
2018-05-15T12:20:11.671Z,24.37
2018-05-15T12:21:16.447Z,24.39
2018-05-15T12:22:20.951Z,24.45
2018-05-15T12:23:26.234Z,24.46
2018-05-15T12:24:30.762Z,24.45
2018-05-15T12:25:35.601Z,24.53
2018-05-15T12:26:40.284Z,24.38
2018-05-15T12:27:44.993Z,24.71
2018-05-15T12:28:50.233Z,24.77
2018-05-15T12:29:55.785Z,24.23
2018-05-15T12:31:00.660Z,23.30
2018-05-15T12:32:05.625Z,23.57
2018-05-15T12:33:10.213Z,23.65
2018-05-15T12:34:14.748Z,23.67
2018-05-15T12:35:19.259Z,24.16
2018-05-15T12:36:23.763Z,24.05
2018-05-15T12:37:28.285Z,23.80
2018-05-15T12:38:33.184Z,23.71
2018-05-15T12:39:37.698Z,24.42
2018-05-15T12:40:42.524Z,24.07
2018-05-15T12:41:47.256Z,23.87
2018-05-15T12:42:51.857Z,23.93
2018-05-15T12:43:56.341Z,23.98
2018-05-15T12:45:01.277Z,24.61
2018-05-15T12:46:05.825Z,24.98
2018-05-15T12:47:10.323Z,24.42
2018-05-15T12:48:14.834Z,24.08
2018-05-15T12:49:19.459Z,24.13
2018-05-15T12:50:23.980Z,24.02
2018-05-15T12:51:28.979Z,24.00
2018-05-15T12:52:33.511Z,24.45
2018-05-15T12:53:38.015Z,24.57
2018-05-15T12:54:42.569Z,24.61
2018-05-15T12:55:47.037Z,24.26
2018-05-15T12:56:51.570Z,24.43
2018-05-15T12:57:56.583Z,24.43
2018-05-15T12:59:01.090Z,24.39
2018-05-15T13:00:05.617Z,24.68
2018-05-15T13:01:10.674Z,24.47
2018-05-15T13:02:15.173Z,24.30
2018-05-15T13:03:19.677Z,24.24
2018-05-15T13:04:24.242Z,23.95
2018-05-15T13:05:28.755Z,24.19
2018-05-15T13:06:33.253Z,24.41
2018-05-15T13:07:37.777Z,24.63
2018-05-15T13:08:42.269Z,24.98
2018-05-15T13:09:47.313Z,24.68
2018-05-15T13:10:51.866Z,24.92
2018-05-15T13:11:56.401Z,25.43
2018-05-15T13:13:00.932Z,25.44
2018-05-15T13:14:05.650Z,25.29
2018-05-15T13:15:10.218Z,25.21
2018-05-15T13:16:15.155Z,25.21
2018-05-15T13:17:19.894Z,25.47
2018-05-15T13:18:24.440Z,25.39
2018-05-15T13:19:28.983Z,25.25
2018-05-15T13:20:33.625Z,25.17
2018-05-15T13:21:38.179Z,25.17
2018-05-15T13:22:42.992Z,25.58
2018-05-15T13:23:47.541Z,25.74
2018-05-15T13:24:52.085Z,25.85
2018-05-15T13:25:56.601Z,25.34
2018-05-15T13:27:01.118Z,25.41
2018-05-15T13:28:05.616Z,25.06
2018-05-15T13:29:10.476Z,25.15
2018-05-15T13:30:15.092Z,25.41
2018-05-15T13:31:19.638Z,25.31
2018-05-15T13:32:24.247Z,25.10
2018-05-15T13:33:28.779Z,25.45
2018-05-15T13:34:33.848Z,25.73
2018-05-15T13:35:38.720Z,25.91
2018-05-15T13:36:43.303Z,26.10
2018-05-15T13:37:47.838Z,26.13
2018-05-15T13:38:52.307Z,26.10
2018-05-15T13:39:56.920Z,25.93
2018-05-15T13:41:01.571Z,25.06
2018-05-15T13:42:06.200Z,24.99
2018-05-15T13:43:10.776Z,25.14
2018-05-15T13:44:15.360Z,25.20
2018-05-15T13:45:19.953Z,25.54
2018-05-15T13:46:24.622Z,25.54
2018-05-15T13:47:29.666Z,25.70
2018-05-15T13:48:34.237Z,25.78
2018-05-15T13:49:38.793Z,25.42
2018-05-15T13:50:43.415Z,25.49
2018-05-15T13:51:48.033Z,25.82
2018-05-15T13:52:53.696Z,26.30
2018-05-15T13:53:58.330Z,26.30
2018-05-15T13:55:03.885Z,26.27
2018-05-15T13:56:08.495Z,26.55
2018-05-15T13:57:13.106Z,26.80
2018-05-15T13:58:17.693Z,26.25
2018-05-15T13:59:22.909Z,26.06
2018-05-15T14:00:27.496Z,25.93
2018-05-15T14:01:32.253Z,25.65